Time;durP1;ratioP1;P1;durP2;ratioP2;P2;SDS_P1;SDS_P2;PMS_P1;PMS_P2;Temp;Humidity;BMP_temperature;BMP_pressure;BME280_temperature;BME280_humidity;BME280_pressure;Samples;Min_cycle;Max_cycle;Signal;HPM_P1;HPM_P2
2022/04/28 00:01:50;;;;;;;;;;;10.50;99.90;;;;;;5049189;28;19928;-84
2022/04/28 00:04:15;;;;;;;;;;;10.50;99.90;;;;;;5051682;28;19948;-84
2022/04/28 00:06:41;;;;;;;;;;;10.40;99.90;;;;;;5048784;28;19913;-85
2022/04/28 00:09:06;;;;;;;;;;;10.40;99.90;;;;;;5055725;28;19948;-84
2022/04/28 00:11:32;;;;;;;;;;;10.40;99.90;;;;;;5049442;28;19913;-84
2022/04/28 00:13:58;;;;;;;;;;;10.40;99.90;;;;;;5048215;28;19929;-82
2022/04/28 00:16:24;;;;;;;;;;;10.30;99.90;;;;;;5050362;28;20315;-85
2022/04/28 00:18:49;;;;;;;;;;;10.30;99.90;;;;;;5049203;28;21153;-84
2022/04/28 00:21:15;;;;;;;;;;;10.30;99.90;;;;;;5050563;28;20211;-83
2022/04/28 00:23:41;;;;;;;;;;;10.20;99.90;;;;;;5049956;28;19919;-83
2022/04/28 00:26:06;;;;;;;;;;;10.20;99.90;;;;;;5052448;28;19913;-84
2022/04/28 00:28:31;;;;;;;;;;;10.10;99.90;;;;;;5042746;28;19967;-84
2022/04/28 00:30:57;;;;;;;;;;;10.10;99.90;;;;;;5049573;28;19940;-84
2022/04/28 00:33:22;;;;;;;;;;;10.10;99.90;;;;;;5046935;28;19916;-85
2022/04/28 00:35:48;;;;;;;;;;;10.00;99.90;;;;;;5048980;28;19921;-83
2022/04/28 00:38:14;;;;;;;;;;;10.00;99.90;;;;;;5051400;28;19916;-83
2022/04/28 00:40:40;;;;;;;;;;;10.00;99.90;;;;;;5054897;28;20338;-83
2022/04/28 00:43:20;;;;;;;;;;;10.00;99.90;;;;;;5051887;28;19917;-85
2022/04/28 00:45:46;;;;;;;;;;;9.90;99.90;;;;;;5048746;28;20373;-84
2022/04/28 00:51:05;;;;;;;;;;;9.90;99.90;;;;;;5048610;28;19919;-84
2022/04/28 00:53:32;;;;;;;;;;;9.90;99.90;;;;;;5041528;28;19909;-84
2022/04/28 00:55:58;;;;;;;;;;;9.90;99.90;;;;;;5049634;28;19920;-84
2022/04/28 00:58:24;;;;;;;;;;;9.80;99.90;;;;;;5059273;28;19975;-84
2022/04/28 01:00:50;;;;;;;;;;;9.80;99.90;;;;;;5046578;28;19925;-83
2022/04/28 01:03:16;;;;;;;;;;;9.80;99.90;;;;;;5046360;28;20002;-84
2022/04/28 01:05:41;;;;;;;;;;;9.70;99.90;;;;;;5042263;28;19913;-84
2022/04/28 01:08:07;;;;;;;;;;;9.70;99.90;;;;;;5053080;28;20278;-85
2022/04/28 01:10:34;;;;;;;;;;;9.70;99.90;;;;;;5050587;28;19945;-84
2022/04/28 01:12:59;;;;;;;;;;;9.70;99.90;;;;;;5041636;28;19912;-85
2022/04/28 01:15:25;;;;;;;;;;;9.60;99.90;;;;;;5048098;28;19913;-84
2022/04/28 01:17:50;;;;;;;;;;;9.60;99.90;;;;;;5053592;28;20039;-84
2022/04/28 01:20:16;;;;;;;;;;;9.60;99.90;;;;;;5052756;28;19936;-83
2022/04/28 01:22:42;;;;;;;;;;;9.50;99.90;;;;;;5047070;28;20365;-84
2022/04/28 01:25:08;;;;;;;;;;;9.50;99.90;;;;;;5054959;28;20011;-84
2022/04/28 01:27:34;;;;;;;;;;;9.50;99.90;;;;;;5053510;28;19936;-85
2022/04/28 01:30:00;;;;;;;;;;;9.50;99.90;;;;;;5052231;28;19947;-83
2022/04/28 01:32:25;;;;;;;;;;;9.40;99.90;;;;;;5055081;28;19920;-84
2022/04/28 01:34:51;;;;;;;;;;;9.40;1.00;;;;;;5048848;28;20023;-84
2022/04/28 01:37:17;;;;;;;;;;;9.40;1.00;;;;;;5054479;28;19919;-83
2022/04/28 01:39:43;;;;;;;;;;;9.30;1.00;;;;;;5048838;28;19965;-84
2022/04/28 01:42:08;;;;;;;;;;;9.30;1.00;;;;;;5052187;28;19917;-83
2022/04/28 01:44:34;;;;;;;;;;;9.30;1.00;;;;;;5054807;28;19921;-83
2022/04/28 01:47:00;;;;;;;;;;;9.30;1.00;;;;;;5052726;28;19913;-84
2022/04/28 01:49:25;;;;;;;;;;;9.20;1.00;;;;;;5053200;28;19919;-83
2022/04/28 01:57:19;;;;;;;;;;;9.10;1.00;;;;;;5046431;28;19924;-84
2022/04/28 01:59:46;;;;;;;;;;;9.00;1.00;;;;;;5050800;28;20335;-85
2022/04/28 02:02:11;;;;;;;;;;;9.00;1.00;;;;;;5049898;28;19943;-84
2022/04/28 02:04:38;;;;;;;;;;;8.90;1.00;;;;;;5050583;28;19912;-83
2022/04/28 02:07:03;;;;;;;;;;;8.80;1.00;;;;;;5067128;28;19909;-84
2022/04/28 02:09:29;;;;;;;;;;;8.70;1.00;;;;;;5054143;28;19919;-84
2022/04/28 02:11:54;;;;;;;;;;;8.70;1.00;;;;;;5051205;28;19916;-83
2022/04/28 02:14:20;;;;;;;;;;;8.60;1.00;;;;;;5054336;28;20373;-84
2022/04/28 02:16:45;;;;;;;;;;;8.60;1.00;;;;;;5051304;28;19920;-84
2022/04/28 02:19:11;;;;;;;;;;;8.60;1.00;;;;;;5049565;28;19913;-84
2022/04/28 02:21:36;;;;;;;;;;;8.60;1.00;;;;;;5054974;28;20428;-85
2022/04/28 02:24:01;;;;;;;;;;;8.50;1.00;;;;;;5053164;28;19921;-84
2022/04/28 02:26:27;;;;;;;;;;;8.40;62.50;;;;;;5053947;28;19968;-84
2022/04/28 02:28:52;;;;;;;;;;;8.30;99.90;;;;;;5052359;28;19913;-84
2022/04/28 02:31:18;;;;;;;;;;;8.30;99.90;;;;;;5054785;28;20292;-83
2022/04/28 02:33:43;;;;;;;;;;;8.30;99.90;;;;;;5051306;28;19987;-83
2022/04/28 02:36:09;;;;;;;;;;;8.20;99.90;;;;;;5050899;28;19930;-82
2022/04/28 02:38:34;;;;;;;;;;;8.20;99.90;;;;;;5061994;28;19935;-85
2022/04/28 02:41:00;;;;;;;;;;;8.20;99.90;;;;;;5052371;28;20000;-83
2022/04/28 02:43:25;;;;;;;;;;;8.20;99.90;;;;;;5053608;28;19923;-84
2022/04/28 02:45:51;;;;;;;;;;;8.20;99.90;;;;;;5055373;28;19997;-84
2022/04/28 02:48:16;;;;;;;;;;;8.10;99.90;;;;;;5074147;28;19951;-82
2022/04/28 02:50:42;;;;;;;;;;;8.00;99.90;;;;;;5054117;28;19913;-85
2022/04/28 02:53:07;;;;;;;;;;;8.00;1.00;;;;;;5057735;28;19921;-84
2022/04/28 02:55:33;;;;;;;;;;;8.00;1.00;;;;;;5055412;28;20046;-84
2022/04/28 02:57:58;;;;;;;;;;;7.90;1.00;;;;;;5053957;28;19928;-84
2022/04/28 03:00:23;;;;;;;;;;;7.90;1.00;;;;;;5050744;28;20003;-83
2022/04/28 03:02:49;;;;;;;;;;;7.90;1.00;;;;;;5049243;28;19916;-83
2022/04/28 03:05:14;;;;;;;;;;;7.90;1.00;;;;;;5056597;28;19980;-83
2022/04/28 03:10:49;;;;;;;;;;;7.90;1.00;;;;;;5033130;28;19970;-84
2022/04/28 03:13:17;;;;;;;;;;;7.90;1.00;;;;;;5054446;28;20335;-82
2022/04/28 03:15:45;;;;;;;;;;;7.90;1.00;;;;;;5052929;28;19913;-84
2022/04/28 03:18:11;;;;;;;;;;;7.80;1.00;;;;;;5055382;28;19920;-83
2022/04/28 03:20:37;;;;;;;;;;;7.80;1.00;;;;;;5053631;28;19923;-85
2022/04/28 03:23:02;;;;;;;;;;;7.80;1.00;;;;;;5055921;28;20393;-84
2022/04/28 03:25:28;;;;;;;;;;;7.80;1.00;;;;;;5070492;28;19943;-82
2022/04/28 03:27:56;;;;;;;;;;;7.80;1.00;;;;;;5054481;28;19959;-83
2022/04/28 03:30:22;;;;;;;;;;;7.80;1.00;;;;;;5054898;28;20269;-84
2022/04/28 03:32:47;;;;;;;;;;;7.80;1.00;;;;;;5055902;28;20300;-83
2022/04/28 03:35:14;;;;;;;;;;;7.80;1.00;;;;;;5053482;28;19913;-85
2022/04/28 03:37:39;;;;;;;;;;;7.80;1.00;;;;;;5055996;28;19913;-85
2022/04/28 03:40:05;;;;;;;;;;;7.80;1.00;;;;;;5053818;28;20270;-83
2022/04/28 03:42:31;;;;;;;;;;;7.80;1.00;;;;;;5056077;28;19917;-84
2022/04/28 03:44:56;;;;;;;;;;;7.80;1.00;;;;;;5054811;28;19913;-84
2022/04/28 03:47:21;;;;;;;;;;;7.80;1.00;;;;;;5056412;28;19947;-84
2022/04/28 03:49:47;;;;;;;;;;;7.80;1.00;;;;;;5053839;28;20409;-84
2022/04/28 03:52:13;;;;;;;;;;;7.80;1.00;;;;;;5056596;28;20393;-84
2022/04/28 03:54:38;;;;;;;;;;;7.70;1.00;;;;;;5056425;28;20288;-84
2022/04/28 03:57:04;;;;;;;;;;;7.70;1.00;;;;;;5072228;28;19920;-83
2022/04/28 03:59:30;;;;;;;;;;;7.70;20.50;;;;;;5054393;28;19920;-84
2022/04/28 04:01:55;;;;;;;;;;;7.70;99.90;;;;;;5051740;28;19917;-83
2022/04/28 04:04:21;;;;;;;;;;;7.60;99.90;;;;;;5050347;28;19913;-83
2022/04/28 04:06:46;;;;;;;;;;;7.60;99.90;;;;;;5053971;28;19913;-83
2022/04/28 04:09:12;;;;;;;;;;;7.50;99.90;;;;;;5055752;28;19917;-82
2022/04/28 04:11:37;;;;;;;;;;;7.50;1.00;;;;;;5055854;28;20392;-85
2022/04/28 04:14:03;;;;;;;;;;;7.50;1.00;;;;;;5053871;28;20324;-84
2022/04/28 04:16:28;;;;;;;;;;;7.50;1.00;;;;;;5055685;28;19928;-84
2022/04/28 04:18:53;;;;;;;;;;;7.40;1.00;;;;;;5055013;28;19909;-84
2022/04/28 04:21:20;;;;;;;;;;;7.40;1.00;;;;;;5048484;28;19913;-84
2022/04/28 04:23:46;;;;;;;;;;;7.40;1.00;;;;;;5048299;28;20197;-84
2022/04/28 04:26:12;;;;;;;;;;;7.40;1.00;;;;;;5053613;28;19920;-84
2022/04/28 04:28:37;;;;;;;;;;;7.50;1.00;;;;;;5050154;28;19913;-84
2022/04/28 04:33:47;;;;;;;;;;;7.60;1.00;;;;;;5051866;28;19924;-84
2022/04/28 04:36:12;;;;;;;;;;;7.60;1.00;;;;;;5050788;28;19913;-83
2022/04/28 04:38:38;;;;;;;;;;;7.60;99.90;;;;;;5055744;28;19909;-83
2022/04/28 04:41:05;;;;;;;;;;;7.70;99.90;;;;;;5047857;28;19970;-83
2022/04/28 04:43:31;;;;;;;;;;;7.80;99.90;;;;;;5070594;28;19959;-83
2022/04/28 04:45:56;;;;;;;;;;;7.80;99.90;;;;;;5048396;28;19920;-84
2022/04/28 04:48:22;;;;;;;;;;;7.80;14.30;;;;;;5052661;28;20004;-84
2022/04/28 04:50:48;;;;;;;;;;;7.90;1.00;;;;;;5046600;28;19909;-85
2022/04/28 04:53:13;;;;;;;;;;;8.00;1.00;;;;;;5055471;28;20006;-84
2022/04/28 04:55:39;;;;;;;;;;;8.10;1.00;;;;;;5050168;28;19925;-84
2022/04/28 04:58:05;;;;;;;;;;;8.20;1.00;;;;;;5050784;28;19917;-84
2022/04/28 05:00:30;;;;;;;;;;;8.20;1.00;;;;;;5068575;28;20172;-83
2022/04/28 05:02:56;;;;;;;;;;;8.40;1.00;;;;;;5053789;28;19924;-83
2022/04/28 05:05:21;;;;;;;;;;;8.50;99.90;;;;;;5053443;28;20282;-84
2022/04/28 05:07:47;;;;;;;;;;;8.60;99.90;;;;;;5052665;28;20384;-84
2022/04/28 05:10:12;;;;;;;;;;;8.70;99.90;;;;;;5052051;28;19913;-83
2022/04/28 05:12:38;;;;;;;;;;;8.80;99.90;;;;;;5061053;28;20289;-83
2022/04/28 05:15:04;;;;;;;;;;;9.00;99.90;;;;;;5048413;28;19921;-84
2022/04/28 05:17:29;;;;;;;;;;;9.10;99.90;;;;;;5054978;28;19966;-83
2022/04/28 05:19:58;;;;;;;;;;;9.20;99.90;;;;;;5048116;28;19913;-83
2022/04/28 05:22:24;;;;;;;;;;;9.60;73.10;;;;;;5041466;28;19916;-84
2022/04/28 05:24:49;;;;;;;;;;;10.50;1.00;;;;;;5049236;28;20269;-83
2022/04/28 05:27:14;;;;;;;;;;;12.40;1.00;;;;;;5053073;28;19924;-83
2022/04/28 05:29:40;;;;;;;;;;;14.20;99.90;;;;;;5054227;28;19974;-84
2022/04/28 05:32:06;;;;;;;;;;;15.70;99.90;;;;;;5047002;28;19923;-84
2022/04/28 05:34:31;;;;;;;;;;;17.50;99.90;;;;;;5051041;28;19921;-83
2022/04/28 05:36:56;;;;;;;;;;;19.20;99.90;;;;;;5060361;28;19917;-83
2022/04/28 05:39:22;;;;;;;;;;;20.70;99.90;;;;;;5060490;28;19943;-86
2022/04/28 05:41:48;;;;;;;;;;;22.10;99.90;;;;;;5057018;28;20292;-87
2022/04/28 05:46:57;;;;;;;;;;;24.10;99.90;;;;;;5065825;28;19920;-86
2022/04/28 05:49:23;;;;;;;;;;;25.20;99.90;;;;;;5064361;28;19913;-87
2022/04/28 05:51:49;;;;;;;;;;;26.10;99.90;;;;;;5067360;28;19909;-85
2022/04/28 05:54:15;;;;;;;;;;;27.00;99.90;;;;;;5065547;28;19919;-85
2022/04/28 05:56:42;;;;;;;;;;;27.70;99.90;;;;;;5065720;28;19921;-85
2022/04/28 05:59:08;;;;;;;;;;;28.70;99.90;;;;;;5050436;28;21268;-86
2022/04/28 06:01:33;;;;;;;;;;;29.40;99.90;;;;;;5081415;28;19948;-85
2022/04/28 06:03:59;;;;;;;;;;;30.80;99.90;;;;;;5067109;28;19914;-85
2022/04/28 06:06:24;;;;;;;;;;;32.20;99.90;;;;;;5067665;28;19913;-86
2022/04/28 06:08:49;;;;;;;;;;;33.50;99.90;;;;;;5066549;28;19914;-88
2022/04/28 06:11:15;;;;;;;;;;;34.70;99.90;;;;;;5069367;28;19909;-85
2022/04/28 06:13:40;;;;;;;;;;;35.50;99.90;;;;;;5062507;28;19947;-86
2022/04/28 06:16:06;;;;;;;;;;;36.10;99.90;;;;;;5067960;28;19919;-89
2022/04/28 06:18:33;;;;;;;;;;;36.80;99.90;;;;;;5067747;28;19920;-89
2022/04/28 06:20:58;;;;;;;;;;;37.10;99.90;;;;;;5061228;28;19912;-87
2022/04/28 06:23:24;;;;;;;;;;;37.60;99.90;;;;;;5061038;28;20047;-85
2022/04/28 06:25:49;;;;;;;;;;;38.40;99.90;;;;;;5067562;28;19913;-85
2022/04/28 06:28:15;;;;;;;;;;;38.90;99.90;;;;;;5065571;28;20007;-86
2022/04/28 06:30:40;;;;;;;;;;;39.40;99.90;;;;;;5067173;28;19909;-84
2022/04/28 06:33:08;;;;;;;;;;;39.50;99.90;;;;;;5061167;28;19917;-87
2022/04/28 06:35:33;;;;;;;;;;;39.90;99.90;;;;;;5064161;28;19919;-86
2022/04/28 06:38:02;;;;;;;;;;;40.50;99.90;;;;;;5064211;28;19913;-85
2022/04/28 06:40:28;;;;;;;;;;;40.10;99.90;;;;;;5052053;28;19909;-85
2022/04/28 06:42:54;;;;;;;;;;;40.70;99.90;;;;;;5057131;28;19951;-87
2022/04/28 06:45:19;;;;;;;;;;;41.30;99.90;;;;;;5060274;28;19928;-84
2022/04/28 06:47:45;;;;;;;;;;;40.90;99.90;;;;;;5056938;28;19984;-85
2022/04/28 06:50:11;;;;;;;;;;;40.70;99.90;;;;;;5062753;28;19913;-89
2022/04/28 06:52:40;;;;;;;;;;;40.80;99.90;;;;;;5060389;28;19921;-87
2022/04/28 06:55:06;;;;;;;;;;;40.80;99.90;;;;;;5062715;28;20384;-84
2022/04/28 06:57:32;;;;;;;;;;;41.80;99.90;;;;;;5060974;28;19917;-84
2022/04/28 07:15:45;;;;;;;;;;;42.60;99.90;;;;;;5024591;28;19987;-81
2022/04/28 07:27:49;;;;;;;;;;;;;;;;;;;;;
2022/04/28 07:30:46;;;;;;;;;;;44.70;99.90;;;;;;5030415;28;20511;-83
2022/04/28 07:33:34;;;;;;;;;;;;;;;;;;;;;
2022/04/28 07:36:08;;;;;;;;;;;45.50;99.90;;;;;;5026723;28;19948;-82
2022/04/28 07:38:44;;;;;;;;;;;;;;;;;;;;;
2022/04/28 07:41:12;;;;;;;;;;;46.30;99.90;;;;;;5031120;28;20030;-83
2022/04/28 07:43:43;;;;;;;;;;;46.10;99.90;;;;;;5026315;28;20388;-83
2022/04/28 07:49:33;;;;;;;;;;;;;;;;;;;;;
2022/04/28 07:52:02;;;;;;;;;;;46.40;99.90;;;;;;5023428;28;19980;-82
2022/04/28 07:57:29;;;;;;;;;;;46.80;99.90;;;;;;5026097;28;19910;-81
2022/04/28 08:00:05;;;;;;;;;;;;;;;;;;;;;
2022/04/28 08:02:38;;;;;;;;;;;46.40;99.90;;;;;;5033390;28;20455;-83
2022/04/28 08:05:20;;;;;;;;;;;46.60;99.90;;;;;;5032212;28;19914;-82
2022/04/28 08:07:54;;;;;;;;;;;46.80;99.90;;;;;;5031419;28;19913;-81
2022/04/28 08:10:22;;;;;;;;;;;46.30;99.90;;;;;;5029848;28;19922;-81
2022/04/28 08:13:13;;;;;;;;;;;46.60;99.90;;;;;;5021638;28;19913;-81
2022/04/28 08:15:39;;;;;;;;;;;46.50;99.90;;;;;;5030348;28;19917;-82
2022/04/28 08:18:04;;;;;;;;;;;45.20;99.90;;;;;;5022956;28;20004;-81
2022/04/28 08:20:30;;;;;;;;;;;44.10;99.90;;;;;;5026819;28;20440;-81
2022/04/28 08:25:56;;;;;;;;;;;44.60;99.90;;;;;;5039489;28;19913;-81
2022/04/28 08:28:42;;;;;;;;;;;43.20;99.90;;;;;;5022492;28;19914;-81
2022/04/28 08:34:44;;;;;;;;;;;;;;;;;;;;;
2022/04/28 08:40:37;;;;;;;;;;;45.90;99.90;;;;;;5023086;28;20015;-81
2022/04/28 08:55:39;;;;;;;;;;;;;;;;;;;;;
2022/04/28 08:58:36;;;;;;;;;;;;;;;;;;;;;
2022/04/28 09:01:27;;;;;;;;;;;46.30;99.90;;;;;;4972188;28;20458;-80
2022/04/28 09:10:56;;;;;;;;;;;;;;;;;;;;;
2022/04/28 09:26:55;;;;;;;;;;;46.40;99.90;;;;;;4923555;29;19943;-82
2022/04/28 09:38:51;;;;;;;;;;;;;;;;;;;;;
2022/04/28 09:47:17;;;;;;;;;;;45.30;99.90;;;;;;5004866;28;20004;-81
2022/04/28 09:50:24;;;;;;;;;;;45.30;99.90;;;;;;5037027;28;20027;-81
2022/04/28 09:56:06;;;;;;;;;;;;;;;;;;;;;
2022/04/28 10:07:58;;;;;;;;;;;44.30;99.90;;;;;;4975281;28;19976;-80
2022/04/28 10:11:12;;;;;;;;;;;;;;;;;;;;;
2022/04/28 10:14:02;;;;;;;;;;;;;;;;;;;;;
2022/04/28 10:16:54;;;;;;;;;;;42.30;99.90;;;;;;5034657;28;19972;-80
2022/04/28 10:34:28;;;;;;;;;;;40.70;99.90;;;;;;5021351;28;19996;-80
2022/04/28 10:36:59;;;;;;;;;;;40.60;99.90;;;;;;5019277;28;19914;-80
2022/04/28 10:39:38;;;;;;;;;;;41.20;99.90;;;;;;5020487;28;19913;-80
2022/04/28 10:42:43;;;;;;;;;;;;;;;;;;;;;
2022/04/28 10:45:31;;;;;;;;;;;41.70;99.90;;;;;;5000866;28;20338;-81
2022/04/28 10:48:31;;;;;;;;;;;41.40;99.90;;;;;;5001056;28;19909;-82
2022/04/28 10:51:28;;;;;;;;;;;41.60;99.90;;;;;;5032934;28;20010;-80
2022/04/28 10:54:19;;;;;;;;;;;41.90;99.90;;;;;;5011969;28;19909;-80
2022/04/28 10:56:52;;;;;;;;;;;42.00;99.90;;;;;;4999257;28;19910;-80
2022/04/28 11:02:25;;;;;;;;;;;41.70;99.90;;;;;;5021985;28;20370;-80
2022/04/28 11:05:01;;;;;;;;;;;41.40;99.90;;;;;;5036489;28;19916;-80
2022/04/28 11:07:38;;;;;;;;;;;;;;;;;;;;;
2022/04/28 11:10:07;;;;;;;;;;;39.60;99.80;;;;;;5025256;28;19977;-80
2022/04/28 11:12:46;;;;;;;;;;;40.00;99.90;;;;;;5024297;28;19949;-80
2022/04/28 11:15:23;;;;;;;;;;;40.30;99.90;;;;;;5024480;28;19953;-79
2022/04/28 11:17:51;;;;;;;;;;;39.10;99.10;;;;;;5025331;28;19940;-81
2022/04/28 11:20:21;;;;;;;;;;;38.50;97.60;;;;;;5026531;28;19920;-81
2022/04/28 11:22:51;;;;;;;;;;;38.70;98.40;;;;;;5034599;28;19959;-82
2022/04/28 11:25:17;;;;;;;;;;;38.80;98.50;;;;;;5022080;28;19975;-81
2022/04/28 11:27:53;;;;;;;;;;;;;;;;;;;;;
2022/04/28 11:30:29;;;;;;;;;;;37.90;99.90;;;;;;5039703;28;20000;-80
2022/04/28 11:33:02;;;;;;;;;;;38.00;97.70;;;;;;5048977;28;19949;-80
2022/04/28 11:35:31;;;;;;;;;;;37.70;97.80;;;;;;5039048;28;20007;-80
2022/04/28 11:38:04;;;;;;;;;;;37.60;97.80;;;;;;5022236;28;19909;-81
2022/04/28 11:40:39;;;;;;;;;;;38.00;98.50;;;;;;5035720;28;20522;-81
2022/04/28 11:43:06;;;;;;;;;;;37.30;97.40;;;;;;5023961;28;19913;-80
2022/04/28 11:45:32;;;;;;;;;;;37.60;98.50;;;;;;5039540;28;19909;-81
2022/04/28 11:47:59;;;;;;;;;;;37.40;98.10;;;;;;5010590;28;19914;-81
2022/04/28 11:50:30;;;;;;;;;;;37.60;99.00;;;;;;5041702;28;20289;-80
2022/04/28 11:53:12;;;;;;;;;;;36.20;96.10;;;;;;5007214;28;19957;-81
2022/04/28 11:55:52;;;;;;;;;;;36.60;96.90;;;;;;5039033;28;20421;-81
2022/04/28 11:58:18;;;;;;;;;;;36.50;97.20;;;;;;5002941;28;19910;-80
2022/04/28 12:00:45;;;;;;;;;;;36.30;97.30;;;;;;5003544;28;19968;-80
2022/04/28 12:03:22;;;;;;;;;;;36.60;97.50;;;;;;5025512;28;19917;-80
2022/04/28 12:05:53;;;;;;;;;;;36.80;98.00;;;;;;5034863;28;19954;-83
2022/04/28 12:08:22;;;;;;;;;;;35.80;96.10;;;;;;5022413;28;19909;-80
2022/04/28 12:16:19;;;;;;;;;;;35.80;96.20;;;;;;5028863;28;20011;-81
2022/04/28 12:19:20;;;;;;;;;;;34.80;94.70;;;;;;5022176;28;19913;-81
2022/04/28 12:22:02;;;;;;;;;;;35.00;94.90;;;;;;5022129;28;19941;-81
2022/04/28 12:24:33;;;;;;;;;;;35.00;95.30;;;;;;5023023;28;19909;-80
2022/04/28 12:27:04;;;;;;;;;;;35.50;96.00;;;;;;5020353;28;19990;-81
2022/04/28 12:29:39;;;;;;;;;;;;;;;;;;;;;
2022/04/28 12:32:08;;;;;;;;;;;35.00;96.40;;;;;;5030105;28;20581;-80
2022/04/28 12:34:36;;;;;;;;;;;34.40;95.30;;;;;;5020872;28;19971;-80
2022/04/28 12:37:08;;;;;;;;;;;34.60;96.20;;;;;;5036134;28;19916;-80
2022/04/28 12:39:53;;;;;;;;;;;34.70;96.40;;;;;;5020586;28;19921;-80
2022/04/28 12:42:19;;;;;;;;;;;34.40;96.30;;;;;;5034391;28;20377;-80
2022/04/28 12:44:45;;;;;;;;;;;34.00;95.50;;;;;;5031949;28;19921;-80
2022/04/28 12:47:30;;;;;;;;;;;;;;;;;;;;;
2022/04/28 12:50:19;;;;;;;;;;;33.60;94.30;;;;;;5005908;28;20000;-80
2022/04/28 12:53:04;;;;;;;;;;;33.40;94.50;;;;;;5038961;28;19909;-80
2022/04/28 12:58:27;;;;;;;;;;;33.80;95.40;;;;;;5029038;28;19948;-80
2022/04/28 13:00:55;;;;;;;;;;;33.90;96.00;;;;;;5016933;28;19917;-80
2022/04/28 13:03:30;;;;;;;;;;;33.10;94.60;;;;;;5029341;28;20465;-80
2022/04/28 13:05:55;;;;;;;;;;;32.90;93.70;;;;;;5009028;28;20374;-80
2022/04/28 13:08:24;;;;;;;;;;;32.80;94.30;;;;;;5000483;28;19917;-80
2022/04/28 13:10:53;;;;;;;;;;;32.50;94.00;;;;;;5035669;28;20430;-80
2022/04/28 13:13:24;;;;;;;;;;;31.40;91.80;;;;;;5019038;28;20407;-82
2022/04/28 13:15:50;;;;;;;;;;;30.90;91.20;;;;;;5041358;28;20259;-80
2022/04/28 13:18:15;;;;;;;;;;;30.30;90.20;;;;;;5016758;28;19913;-80
2022/04/28 13:20:41;;;;;;;;;;;30.60;91.00;;;;;;5026260;28;19915;-80
2022/04/28 13:23:07;;;;;;;;;;;30.90;92.10;;;;;;5027033;28;20374;-80
2022/04/28 13:25:44;;;;;;;;;;;31.20;92.80;;;;;;5020281;28;19961;-80
2022/04/28 13:28:09;;;;;;;;;;;31.40;93.10;;;;;;5000153;28;20004;-80
2022/04/28 13:30:38;;;;;;;;;;;31.30;92.60;;;;;;5001058;28;20468;-81
2022/04/28 13:33:04;;;;;;;;;;;31.40;92.90;;;;;;5006402;28;19910;-80
2022/04/28 13:35:30;;;;;;;;;;;31.60;93.60;;;;;;5025248;28;19909;-81
2022/04/28 13:38:13;;;;;;;;;;;31.70;93.90;;;;;;5033062;28;19909;-80
2022/04/28 13:40:41;;;;;;;;;;;31.50;93.80;;;;;;5018997;28;19968;-81
2022/04/28 13:43:25;;;;;;;;;;;30.80;93.10;;;;;;5019218;28;19960;-80
2022/04/28 13:45:53;;;;;;;;;;;30.40;92.30;;;;;;5028856;28;19913;-81
2022/04/28 13:48:19;;;;;;;;;;;30.10;91.80;;;;;;5029909;28;19910;-80
2022/04/28 13:50:50;;;;;;;;;;;29.80;91.20;;;;;;5025820;28;19932;-81
2022/04/28 13:53:16;;;;;;;;;;;29.90;91.70;;;;;;5027796;28;19935;-81
2022/04/28 13:55:45;;;;;;;;;;;30.00;92.40;;;;;;5020947;28;20329;-81
2022/04/28 13:58:14;;;;;;;;;;;30.20;93.20;;;;;;5024121;28;19910;-81
2022/04/28 14:00:42;;;;;;;;;;;29.90;93.20;;;;;;5031577;28;19960;-81
2022/04/28 14:03:07;;;;;;;;;;;29.60;93.20;;;;;;5022469;28;19967;-81
2022/04/28 14:05:33;;;;;;;;;;;29.00;91.70;;;;;;5020357;28;19913;-80
2022/04/28 14:07:58;;;;;;;;;;;28.60;91.30;;;;;;5020565;28;19917;-81
2022/04/28 14:10:24;;;;;;;;;;;28.50;91.90;;;;;;5032364;28;20010;-80
2022/04/28 14:12:50;;;;;;;;;;;28.50;91.80;;;;;;5026668;28;20016;-80
2022/04/28 14:15:17;;;;;;;;;;;28.20;91.80;;;;;;5026946;28;19917;-80
2022/04/28 14:17:44;;;;;;;;;;;28.40;92.80;;;;;;5018500;28;19924;-80
2022/04/28 14:20:10;;;;;;;;;;;28.20;92.20;;;;;;5031772;28;19909;-80
2022/04/28 14:22:37;;;;;;;;;;;28.00;92.40;;;;;;5031735;28;19913;-81
2022/04/28 14:25:02;;;;;;;;;;;27.70;92.00;;;;;;5030540;28;19967;-80
2022/04/28 14:27:28;;;;;;;;;;;27.00;90.90;;;;;;5014179;28;19976;-79
2022/04/28 14:29:53;;;;;;;;;;;26.80;90.40;;;;;;5039711;28;19976;-79
2022/04/28 14:32:19;;;;;;;;;;;26.70;91.10;;;;;;5037199;28;19920;-79
2022/04/28 14:34:45;;;;;;;;;;;26.70;92.30;;;;;;5019132;28;19909;-80
2022/04/28 14:37:10;;;;;;;;;;;26.30;91.00;;;;;;5027829;28;19916;-79
2022/04/28 14:39:36;;;;;;;;;;;26.20;91.20;;;;;;5018772;28;19923;-80
2022/04/28 14:42:03;;;;;;;;;;;25.80;90.80;;;;;;5033737;28;19948;-81
2022/04/28 14:44:30;;;;;;;;;;;25.70;91.00;;;;;;5028658;28;19941;-79
2022/04/28 14:46:55;;;;;;;;;;;25.60;90.80;;;;;;5032975;28;19920;-80
2022/04/28 14:52:21;;;;;;;;;;;25.50;90.80;;;;;;5006637;28;19920;-80
2022/04/28 14:54:56;;;;;;;;;;;25.30;90.80;;;;;;5020589;28;19920;-81
2022/04/28 14:57:23;;;;;;;;;;;24.90;90.70;;;;;;5017406;28;19913;-81
2022/04/28 14:59:49;;;;;;;;;;;24.90;91.00;;;;;;5029665;28;19918;-80
2022/04/28 15:02:14;;;;;;;;;;;24.90;91.40;;;;;;5020778;28;20004;-80
2022/04/28 15:04:40;;;;;;;;;;;24.90;91.80;;;;;;5023845;28;19940;-84
2022/04/28 15:07:05;;;;;;;;;;;24.90;91.80;;;;;;5019395;28;19956;-80
2022/04/28 15:09:31;;;;;;;;;;;24.70;91.90;;;;;;5019249;28;20410;-80
2022/04/28 15:11:57;;;;;;;;;;;24.70;92.00;;;;;;5028819;28;19920;-79
2022/04/28 15:14:22;;;;;;;;;;;24.80;92.60;;;;;;5025383;28;19909;-80
2022/04/28 15:17:03;;;;;;;;;;;24.70;92.20;;;;;;5016617;28;19917;-80
2022/04/28 15:19:29;;;;;;;;;;;24.50;92.30;;;;;;5016618;28;19919;-80
2022/04/28 15:21:57;;;;;;;;;;;24.60;93.60;;;;;;5037622;28;20426;-81
2022/04/28 15:24:25;;;;;;;;;;;24.40;92.60;;;;;;5014175;28;19937;-80
2022/04/28 15:26:53;;;;;;;;;;;24.40;99.90;;;;;;5024709;28;19925;-79
2022/04/28 15:29:19;;;;;;;;;;;24.50;93.50;;;;;;5013968;28;19920;-81
2022/04/28 15:31:50;;;;;;;;;;;24.50;93.40;;;;;;5014502;28;20400;-81
2022/04/28 15:34:26;;;;;;;;;;;;;;;;;;;;;
2022/04/28 15:36:52;;;;;;;;;;;24.30;93.10;;;;;;5018842;28;20003;-81
2022/04/28 15:39:20;;;;;;;;;;;24.30;93.40;;;;;;5025769;28;19943;-82
2022/04/28 15:41:46;;;;;;;;;;;24.30;93.70;;;;;;5030952;28;19951;-82
2022/04/28 15:44:12;;;;;;;;;;;24.30;93.80;;;;;;5017791;28;19976;-81
2022/04/28 15:46:47;;;;;;;;;;;24.30;99.90;;;;;;5015298;28;19914;-81
2022/04/28 15:49:15;;;;;;;;;;;24.30;93.10;;;;;;5012523;28;19914;-80
2022/04/28 15:51:41;;;;;;;;;;;24.30;93.70;;;;;;5027713;28;19914;-80
2022/04/28 15:54:11;;;;;;;;;;;24.30;94.20;;;;;;5015853;28;19927;-80
2022/04/28 15:59:41;;;;;;;;;;;;;;;;;;;;;
2022/04/28 16:02:15;;;;;;;;;;;24.10;94.50;;;;;;5015078;28;20007;-81
2022/04/28 16:04:53;;;;;;;;;;;;;;;;;;;;;
2022/04/28 16:07:49;;;;;;;;;;;23.90;94.50;;;;;;5015610;28;20016;-81
2022/04/28 16:10:15;;;;;;;;;;;23.90;94.60;;;;;;5022644;28;20301;-80
2022/04/28 16:12:41;;;;;;;;;;;23.80;94.60;;;;;;5012422;28;20429;-81
2022/04/28 16:15:30;;;;;;;;;;;23.50;93.80;;;;;;5023648;28;19952;-81
2022/04/28 16:18:06;;;;;;;;;;;23.60;94.20;;;;;;5022952;28;20016;-80
2022/04/28 16:20:31;;;;;;;;;;;23.50;94.40;;;;;;5025169;28;20354;-81
2022/04/28 16:22:58;;;;;;;;;;;23.50;94.60;;;;;;5019371;28;19972;-81
2022/04/28 16:25:24;;;;;;;;;;;23.40;94.60;;;;;;5027370;28;19909;-80
2022/04/28 16:27:50;;;;;;;;;;;23.30;94.00;;;;;;5042825;28;20418;-81
2022/04/28 16:30:16;;;;;;;;;;;23.00;93.40;;;;;;5042158;28;19913;-79
2022/04/28 16:32:45;;;;;;;;;;;22.90;93.60;;;;;;5036802;28;19909;-80
2022/04/28 16:35:10;;;;;;;;;;;22.60;93.20;;;;;;5043050;28;19931;-80
2022/04/28 16:37:36;;;;;;;;;;;22.50;93.30;;;;;;5025055;28;19918;-80
2022/04/28 16:40:02;;;;;;;;;;;22.50;93.40;;;;;;5027221;28;19917;-80
2022/04/28 16:42:29;;;;;;;;;;;22.50;93.90;;;;;;5028698;28;19924;-80
2022/04/28 16:44:55;;;;;;;;;;;22.40;93.30;;;;;;5022785;28;19916;-78
2022/04/28 16:47:48;;;;;;;;;;;22.30;94.10;;;;;;5011754;28;19921;-78
2022/04/28 16:50:16;;;;;;;;;;;22.30;94.70;;;;;;5015857;28;19914;-78
2022/04/28 16:52:43;;;;;;;;;;;22.30;95.60;;;;;;5018850;28;19913;-81
2022/04/28 16:55:09;;;;;;;;;;;22.40;95.30;;;;;;5023381;28;19917;-80
2022/04/28 16:57:35;;;;;;;;;;;22.30;95.90;;;;;;5019987;28;19920;-80
2022/04/28 17:00:05;;;;;;;;;;;22.30;96.30;;;;;;5018287;28;19921;-80
2022/04/28 17:04:13;;;;;;;;;;;22.20;96.00;;;;;;5018104;28;19944;-80
2022/04/28 17:05:16;;;;;;;;;;;22.20;96.90;;;;;;5020049;28;20034;-81
2022/04/28 17:07:42;;;;;;;;;;;22.10;96.90;;;;;;5025399;28;19913;-81
2022/04/28 17:10:08;;;;;;;;;;;22.20;97.70;;;;;;5015123;28;19956;-81
2022/04/28 17:12:36;;;;;;;;;;;22.20;99.90;;;;;;5024020;28;19936;-80
2022/04/28 17:15:02;;;;;;;;;;;22.20;98.20;;;;;;5018117;28;19913;-79
2022/04/28 17:17:28;;;;;;;;;;;22.20;98.30;;;;;;5032656;28;20301;-80
2022/04/28 17:19:53;;;;;;;;;;;22.10;98.60;;;;;;5019535;28;19922;-79
2022/04/28 17:22:19;;;;;;;;;;;22.10;99.10;;;;;;5020103;28;19917;-79
2022/04/28 17:24:44;;;;;;;;;;;22.00;99.10;;;;;;5026442;28;19918;-80
2022/04/28 17:27:10;;;;;;;;;;;21.90;98.90;;;;;;5022043;28;19913;-79